sensor_id;sensor_type;location;lat;lon;timestamp;temperature;humidity
5775;DHT22;2913;51.120;6.772;2023-07-20T00:01:31;18.60;99.90
5775;DHT22;2913;51.120;6.772;2023-07-20T00:03:57;18.60;99.90
5775;DHT22;2913;51.120;6.772;2023-07-20T00:06:25;18.60;99.90
5775;DHT22;2913;51.120;6.772;2023-07-20T00:08:54;18.60;99.90
5775;DHT22;2913;51.120;6.772;2023-07-20T00:11:25;18.60;99.90
5775;DHT22;2913;51.120;6.772;2023-07-20T00:13:55;18.60;99.90
5775;DHT22;2913;51.120;6.772;2023-07-20T00:16:20;18.60;99.90
5775;DHT22;2913;51.120;6.772;2023-07-20T00:18:46;18.60;99.90
5775;DHT22;2913;51.120;6.772;2023-07-20T00:21:19;18.60;99.90
5775;DHT22;2913;51.120;6.772;2023-07-20T00:23:45;18.60;99.90
5775;DHT22;2913;51.120;6.772;2023-07-20T00:26:13;18.60;99.90
5775;DHT22;2913;51.120;6.772;2023-07-20T00:28:38;18.60;99.90
5775;DHT22;2913;51.120;6.772;2023-07-20T00:31:04;18.50;99.90
5775;DHT22;2913;51.120;6.772;2023-07-20T00:33:30;18.50;99.90
5775;DHT22;2913;51.120;6.772;2023-07-20T00:35:55;18.60;99.90
5775;DHT22;2913;51.120;6.772;2023-07-20T00:38:21;18.50;99.90
5775;DHT22;2913;51.120;6.772;2023-07-20T00:40:49;18.50;99.90
5775;DHT22;2913;51.120;6.772;2023-07-20T00:43:17;18.50;99.90
5775;DHT22;2913;51.120;6.772;2023-07-20T00:45:43;18.50;99.90
5775;DHT22;2913;51.120;6.772;2023-07-20T00:48:09;18.60;99.90
5775;DHT22;2913;51.120;6.772;2023-07-20T00:50:35;18.50;99.90
5775;DHT22;2913;51.120;6.772;2023-07-20T00:53:02;18.50;99.90
5775;DHT22;2913;51.120;6.772;2023-07-20T00:55:32;18.50;99.90
5775;DHT22;2913;51.120;6.772;2023-07-20T00:57:59;18.50;99.90
5775;DHT22;2913;51.120;6.772;2023-07-20T01:00:24;18.50;99.90
5775;DHT22;2913;51.120;6.772;2023-07-20T01:02:53;18.50;99.90
5775;DHT22;2913;51.120;6.772;2023-07-20T01:05:21;18.40;99.90
5775;DHT22;2913;51.120;6.772;2023-07-20T01:07:55;18.50;99.90
5775;DHT22;2913;51.120;6.772;2023-07-20T01:10:31;18.50;99.90
5775;DHT22;2913;51.120;6.772;2023-07-20T01:13:00;18.50;99.90
5775;DHT22;2913;51.120;6.772;2023-07-20T01:15:26;18.50;99.90
5775;DHT22;2913;51.120;6.772;2023-07-20T01:17:55;18.50;99.90
5775;DHT22;2913;51.120;6.772;2023-07-20T01:20:21;18.50;99.90
5775;DHT22;2913;51.120;6.772;2023-07-20T01:33:33;18.30;99.90
5775;DHT22;2913;51.120;6.772;2023-07-20T01:36:00;18.30;99.90
5775;DHT22;2913;51.120;6.772;2023-07-20T01:38:26;18.20;99.90
5775;DHT22;2913;51.120;6.772;2023-07-20T01:40:52;18.20;99.90
5775;DHT22;2913;51.120;6.772;2023-07-20T01:43:18;18.20;99.90
5775;DHT22;2913;51.120;6.772;2023-07-20T01:45:44;18.20;99.90
5775;DHT22;2913;51.120;6.772;2023-07-20T01:50:37;18.10;99.90
5775;DHT22;2913;51.120;6.772;2023-07-20T01:53:02;18.10;99.90
5775;DHT22;2913;51.120;6.772;2023-07-20T01:55:28;18.10;99.90
5775;DHT22;2913;51.120;6.772;2023-07-20T01:57:55;18.10;99.90
5775;DHT22;2913;51.120;6.772;2023-07-20T02:00:20;18.10;99.90
5775;DHT22;2913;51.120;6.772;2023-07-20T02:02:50;18.00;99.90
5775;DHT22;2913;51.120;6.772;2023-07-20T02:05:16;18.00;99.90
5775;DHT22;2913;51.120;6.772;2023-07-20T02:07:42;17.90;99.90
5775;DHT22;2913;51.120;6.772;2023-07-20T02:10:10;17.90;99.90
5775;DHT22;2913;51.120;6.772;2023-07-20T02:12:38;17.90;99.90
5775;DHT22;2913;51.120;6.772;2023-07-20T02:15:04;17.80;99.90
5775;DHT22;2913;51.120;6.772;2023-07-20T02:17:29;17.80;99.90
5775;DHT22;2913;51.120;6.772;2023-07-20T02:19:56;17.70;99.90
5775;DHT22;2913;51.120;6.772;2023-07-20T02:22:27;17.70;99.90
5775;DHT22;2913;51.120;6.772;2023-07-20T02:24:52;17.60;99.90
5775;DHT22;2913;51.120;6.772;2023-07-20T02:27:18;17.60;99.90
5775;DHT22;2913;51.120;6.772;2023-07-20T02:29:46;17.60;99.90
5775;DHT22;2913;51.120;6.772;2023-07-20T02:32:12;17.50;99.90
5775;DHT22;2913;51.120;6.772;2023-07-20T02:34:40;17.50;99.90
5775;DHT22;2913;51.120;6.772;2023-07-20T02:37:06;17.50;99.90
5775;DHT22;2913;51.120;6.772;2023-07-20T02:39:31;17.60;99.90
5775;DHT22;2913;51.120;6.772;2023-07-20T02:41:59;17.50;99.90
5775;DHT22;2913;51.120;6.772;2023-07-20T02:44:25;17.50;99.90
5775;DHT22;2913;51.120;6.772;2023-07-20T02:46:50;17.60;99.90
5775;DHT22;2913;51.120;6.772;2023-07-20T02:49:16;17.60;99.90
5775;DHT22;2913;51.120;6.772;2023-07-20T02:51:44;17.60;99.90
5775;DHT22;2913;51.120;6.772;2023-07-20T02:54:12;17.60;99.90
5775;DHT22;2913;51.120;6.772;2023-07-20T02:56:40;17.60;99.90
5775;DHT22;2913;51.120;6.772;2023-07-20T02:59:06;17.70;99.90
5775;DHT22;2913;51.120;6.772;2023-07-20T03:01:31;17.60;99.90
5775;DHT22;2913;51.120;6.772;2023-07-20T03:03:57;17.60;99.90
5775;DHT22;2913;51.120;6.772;2023-07-20T03:06:25;17.60;99.90
5775;DHT22;2913;51.120;6.772;2023-07-20T03:08:50;17.50;99.90
5775;DHT22;2913;51.120;6.772;2023-07-20T03:11:19;17.50;99.90
5775;DHT22;2913;51.120;6.772;2023-07-20T03:13:48;17.50;99.90
5775;DHT22;2913;51.120;6.772;2023-07-20T03:16:17;17.40;99.90
5775;DHT22;2913;51.120;6.772;2023-07-20T03:18:47;17.40;99.90
5775;DHT22;2913;51.120;6.772;2023-07-20T03:21:18;17.40;99.90
5775;DHT22;2913;51.120;6.772;2023-07-20T03:23:44;17.40;99.90
5775;DHT22;2913;51.120;6.772;2023-07-20T03:26:10;17.40;99.90
5775;DHT22;2913;51.120;6.772;2023-07-20T03:28:38;17.40;99.90
5775;DHT22;2913;51.120;6.772;2023-07-20T03:31:06;17.40;99.90
5775;DHT22;2913;51.120;6.772;2023-07-20T03:33:32;17.30;99.90
5775;DHT22;2913;51.120;6.772;2023-07-20T03:35:59;16.60;99.90
5775;DHT22;2913;51.120;6.772;2023-07-20T03:38:25;17.20;99.90
5775;DHT22;2913;51.120;6.772;2023-07-20T03:40:55;17.20;99.90
5775;DHT22;2913;51.120;6.772;2023-07-20T03:43:25;17.20;99.90
5775;DHT22;2913;51.120;6.772;2023-07-20T03:45:54;17.20;99.90
5775;DHT22;2913;51.120;6.772;2023-07-20T03:48:23;17.20;99.90
5775;DHT22;2913;51.120;6.772;2023-07-20T03:50:51;17.20;99.90
5775;DHT22;2913;51.120;6.772;2023-07-20T03:53:17;17.20;99.90
5775;DHT22;2913;51.120;6.772;2023-07-20T03:55:50;17.10;99.90
5775;DHT22;2913;51.120;6.772;2023-07-20T03:58:20;17.20;99.90
5775;DHT22;2913;51.120;6.772;2023-07-20T04:00:50;17.10;99.90
5775;DHT22;2913;51.120;6.772;2023-07-20T04:03:17;17.10;99.90
5775;DHT22;2913;51.120;6.772;2023-07-20T04:05:45;17.10;99.90
5775;DHT22;2913;51.120;6.772;2023-07-20T04:08:11;17.20;99.90
5775;DHT22;2913;51.120;6.772;2023-07-20T04:10:37;17.20;99.90
5775;DHT22;2913;51.120;6.772;2023-07-20T04:13:04;17.20;99.90
5775;DHT22;2913;51.120;6.772;2023-07-20T04:15:30;17.30;99.90
5775;DHT22;2913;51.120;6.772;2023-07-20T04:17:56;17.30;99.90
5775;DHT22;2913;51.120;6.772;2023-07-20T04:20:25;17.30;99.90
5775;DHT22;2913;51.120;6.772;2023-07-20T04:22:50;17.30;99.90
5775;DHT22;2913;51.120;6.772;2023-07-20T04:25:21;17.30;99.90
5775;DHT22;2913;51.120;6.772;2023-07-20T04:27:49;17.30;99.90
5775;DHT22;2913;51.120;6.772;2023-07-20T04:30:17;17.40;99.90
5775;DHT22;2913;51.120;6.772;2023-07-20T04:32:45;17.50;99.90
5775;DHT22;2913;51.120;6.772;2023-07-20T04:35:25;17.50;99.90
5775;DHT22;2913;51.120;6.772;2023-07-20T04:38:05;17.60;99.90
5775;DHT22;2913;51.120;6.772;2023-07-20T04:40:36;17.60;99.90
5775;DHT22;2913;51.120;6.772;2023-07-20T04:43:04;17.60;99.90
5775;DHT22;2913;51.120;6.772;2023-07-20T04:45:30;17.60;99.90
5775;DHT22;2913;51.120;6.772;2023-07-20T04:47:56;17.60;99.90
5775;DHT22;2913;51.120;6.772;2023-07-20T04:50:22;17.60;99.90
5775;DHT22;2913;51.120;6.772;2023-07-20T04:52:50;17.60;99.90
5775;DHT22;2913;51.120;6.772;2023-07-20T04:55:18;17.60;99.90
5775;DHT22;2913;51.120;6.772;2023-07-20T04:57:51;17.70;99.90
5775;DHT22;2913;51.120;6.772;2023-07-20T05:00:17;17.70;99.90
5775;DHT22;2913;51.120;6.772;2023-07-20T05:02:43;17.70;99.90
5775;DHT22;2913;51.120;6.772;2023-07-20T05:05:08;17.80;99.90
5775;DHT22;2913;51.120;6.772;2023-07-20T05:07:39;17.80;99.90
5775;DHT22;2913;51.120;6.772;2023-07-20T05:10:05;17.80;99.90
5775;DHT22;2913;51.120;6.772;2023-07-20T05:12:33;17.80;99.90
5775;DHT22;2913;51.120;6.772;2023-07-20T05:15:01;17.70;99.90
5775;DHT22;2913;51.120;6.772;2023-07-20T05:17:27;17.70;99.90
5775;DHT22;2913;51.120;6.772;2023-07-20T05:19:55;17.90;99.90
5775;DHT22;2913;51.120;6.772;2023-07-20T05:22:20;17.90;99.90
5775;DHT22;2913;51.120;6.772;2023-07-20T05:24:46;17.90;99.90
5775;DHT22;2913;51.120;6.772;2023-07-20T05:27:12;18.10;99.90
5775;DHT22;2913;51.120;6.772;2023-07-20T05:29:37;18.20;99.90
5775;DHT22;2913;51.120;6.772;2023-07-20T05:32:08;18.30;99.90
5775;DHT22;2913;51.120;6.772;2023-07-20T05:34:35;18.30;99.90
5775;DHT22;2913;51.120;6.772;2023-07-20T05:37:03;18.40;99.90
5775;DHT22;2913;51.120;6.772;2023-07-20T05:39:28;18.40;99.90
5775;DHT22;2913;51.120;6.772;2023-07-20T05:41:56;18.50;99.90
5775;DHT22;2913;51.120;6.772;2023-07-20T05:44:22;18.70;99.90
5775;DHT22;2913;51.120;6.772;2023-07-20T05:46:47;18.90;99.90
5775;DHT22;2913;51.120;6.772;2023-07-20T05:49:18;19.00;99.90
5775;DHT22;2913;51.120;6.772;2023-07-20T05:51:43;19.10;99.90
5775;DHT22;2913;51.120;6.772;2023-07-20T05:54:09;19.10;99.90
5775;DHT22;2913;51.120;6.772;2023-07-20T05:56:36;19.00;99.90
5775;DHT22;2913;51.120;6.772;2023-07-20T05:59:02;18.90;99.90
5775;DHT22;2913;51.120;6.772;2023-07-20T06:01:28;18.90;99.90
5775;DHT22;2913;51.120;6.772;2023-07-20T06:03:53;18.90;99.90
5775;DHT22;2913;51.120;6.772;2023-07-20T06:06:21;18.80;99.90
5775;DHT22;2913;51.120;6.772;2023-07-20T06:08:47;18.80;99.90
5775;DHT22;2913;51.120;6.772;2023-07-20T06:11:17;18.90;99.90
5775;DHT22;2913;51.120;6.772;2023-07-20T06:13:42;18.90;99.90
5775;DHT22;2913;51.120;6.772;2023-07-20T06:16:09;18.90;99.90
5775;DHT22;2913;51.120;6.772;2023-07-20T06:18:34;19.20;99.90
5775;DHT22;2913;51.120;6.772;2023-07-20T06:21:02;19.40;99.90
5775;DHT22;2913;51.120;6.772;2023-07-20T06:23:28;19.90;99.90
5775;DHT22;2913;51.120;6.772;2023-07-20T06:25:53;20.20;99.90
5775;DHT22;2913;51.120;6.772;2023-07-20T06:28:19;20.40;99.90
5775;DHT22;2913;51.120;6.772;2023-07-20T06:30:45;20.40;99.90
5775;DHT22;2913;51.120;6.772;2023-07-20T06:33:10;20.60;99.90
5775;DHT22;2913;51.120;6.772;2023-07-20T06:35:40;20.40;99.90
5775;DHT22;2913;51.120;6.772;2023-07-20T06:38:08;20.20;99.90
5775;DHT22;2913;51.120;6.772;2023-07-20T06:40:34;20.10;99.90
5775;DHT22;2913;51.120;6.772;2023-07-20T06:43:02;19.90;99.90
5775;DHT22;2913;51.120;6.772;2023-07-20T06:45:27;19.80;99.90
5775;DHT22;2913;51.120;6.772;2023-07-20T06:47:53;20.10;99.90
5775;DHT22;2913;51.120;6.772;2023-07-20T06:50:18;20.60;99.90
5775;DHT22;2913;51.120;6.772;2023-07-20T06:52:49;21.00;99.90
5775;DHT22;2913;51.120;6.772;2023-07-20T06:55:14;21.00;99.90
5775;DHT22;2913;51.120;6.772;2023-07-20T06:57:42;21.30;99.90
5775;DHT22;2913;51.120;6.772;2023-07-20T07:00:08;21.30;99.90
5775;DHT22;2913;51.120;6.772;2023-07-20T07:02:34;21.30;99.90
5775;DHT22;2913;51.120;6.772;2023-07-20T07:05:00;21.70;99.90
5775;DHT22;2913;51.120;6.772;2023-07-20T07:07:30;21.70;99.90
5775;DHT22;2913;51.120;6.772;2023-07-20T07:09:55;21.60;99.90
5775;DHT22;2913;51.120;6.772;2023-07-20T07:12:21;21.40;99.90
5775;DHT22;2913;51.120;6.772;2023-07-20T07:14:47;21.20;99.90
5775;DHT22;2913;51.120;6.772;2023-07-20T07:17:15;20.90;99.90
5775;DHT22;2913;51.120;6.772;2023-07-20T07:19:42;20.80;99.90
5775;DHT22;2913;51.120;6.772;2023-07-20T07:22:10;21.10;99.90
5775;DHT22;2913;51.120;6.772;2023-07-20T07:24:41;21.70;99.90
5775;DHT22;2913;51.120;6.772;2023-07-20T07:27:08;22.10;99.90
5775;DHT22;2913;51.120;6.772;2023-07-20T07:29:36;22.30;99.90
5775;DHT22;2913;51.120;6.772;2023-07-20T07:32:02;22.50;99.90
5775;DHT22;2913;51.120;6.772;2023-07-20T07:34:28;22.40;99.90
5775;DHT22;2913;51.120;6.772;2023-07-20T07:36:53;22.30;99.90
5775;DHT22;2913;51.120;6.772;2023-07-20T07:39:22;22.70;99.90
5775;DHT22;2913;51.120;6.772;2023-07-20T07:41:52;22.70;99.90
5775;DHT22;2913;51.120;6.772;2023-07-20T07:44:18;23.00;99.90
5775;DHT22;2913;51.120;6.772;2023-07-20T07:46:43;23.40;99.90
5775;DHT22;2913;51.120;6.772;2023-07-20T07:49:09;23.40;99.90
5775;DHT22;2913;51.120;6.772;2023-07-20T07:51:37;23.40;99.90
5775;DHT22;2913;51.120;6.772;2023-07-20T07:54:05;23.50;99.80
5775;DHT22;2913;51.120;6.772;2023-07-20T07:56:31;23.40;98.90
5775;DHT22;2913;51.120;6.772;2023-07-20T07:58:56;23.10;98.40
5775;DHT22;2913;51.120;6.772;2023-07-20T08:01:22;22.60;99.30
5775;DHT22;2913;51.120;6.772;2023-07-20T08:03:50;22.30;99.70
5775;DHT22;2913;51.120;6.772;2023-07-20T08:06:18;22.30;99.90
5775;DHT22;2913;51.120;6.772;2023-07-20T08:08:44;22.60;99.90
5775;DHT22;2913;51.120;6.772;2023-07-20T08:11:09;22.80;99.40
5775;DHT22;2913;51.120;6.772;2023-07-20T08:13:38;22.80;98.70
5775;DHT22;2913;51.120;6.772;2023-07-20T08:16:03;23.20;99.00
5775;DHT22;2913;51.120;6.772;2023-07-20T08:18:31;23.30;97.90
5775;DHT22;2913;51.120;6.772;2023-07-20T08:20:57;23.20;97.70
5775;DHT22;2913;51.120;6.772;2023-07-20T08:23:27;23.10;97.40
5775;DHT22;2913;51.120;6.772;2023-07-20T08:25:53;22.70;98.40
5775;DHT22;2913;51.120;6.772;2023-07-20T08:28:19;22.50;99.50
5775;DHT22;2913;51.120;6.772;2023-07-20T08:30:48;22.30;99.80
5775;DHT22;2913;51.120;6.772;2023-07-20T08:33:19;22.40;99.90
5775;DHT22;2913;51.120;6.772;2023-07-20T08:35:45;22.60;99.40
5775;DHT22;2913;51.120;6.772;2023-07-20T08:38:11;23.00;99.90
5775;DHT22;2913;51.120;6.772;2023-07-20T08:40:43;23.30;99.40
5775;DHT22;2913;51.120;6.772;2023-07-20T08:43:15;23.40;98.10
5775;DHT22;2913;51.120;6.772;2023-07-20T08:45:44;23.70;97.20
5775;DHT22;2913;51.120;6.772;2023-07-20T08:48:14;23.40;97.80
5775;DHT22;2913;51.120;6.772;2023-07-20T08:50:43;23.40;97.30
5775;DHT22;2913;51.120;6.772;2023-07-20T08:53:12;23.50;97.00
5775;DHT22;2913;51.120;6.772;2023-07-20T08:55:39;23.60;96.30
5775;DHT22;2913;51.120;6.772;2023-07-20T08:58:08;23.70;95.40
5775;DHT22;2913;51.120;6.772;2023-07-20T09:00:37;23.90;94.30
5775;DHT22;2913;51.120;6.772;2023-07-20T09:03:03;24.00;93.60
5775;DHT22;2913;51.120;6.772;2023-07-20T09:05:30;24.10;92.80
5775;DHT22;2913;51.120;6.772;2023-07-20T09:07:55;23.80;91.10
5775;DHT22;2913;51.120;6.772;2023-07-20T09:10:24;24.00;91.50
5775;DHT22;2913;51.120;6.772;2023-07-20T09:12:50;23.80;91.40
5775;DHT22;2913;51.120;6.772;2023-07-20T09:15:16;24.20;91.80
5775;DHT22;2913;51.120;6.772;2023-07-20T09:17:49;24.20;91.20
5775;DHT22;2913;51.120;6.772;2023-07-20T09:20:17;24.20;91.60
5775;DHT22;2913;51.120;6.772;2023-07-20T09:22:50;24.10;91.30
5775;DHT22;2913;51.120;6.772;2023-07-20T09:25:18;24.00;90.70
5775;DHT22;2913;51.120;6.772;2023-07-20T09:27:48;24.20;91.00
5775;DHT22;2913;51.120;6.772;2023-07-20T09:30:15;24.00;91.10
5775;DHT22;2913;51.120;6.772;2023-07-20T09:32:43;24.10;88.90
5775;DHT22;2913;51.120;6.772;2023-07-20T09:35:13;23.80;88.60
5775;DHT22;2913;51.120;6.772;2023-07-20T09:37:42;24.00;88.50
5775;DHT22;2913;51.120;6.772;2023-07-20T09:40:11;23.90;87.30
5775;DHT22;2913;51.120;6.772;2023-07-20T09:42:36;23.50;85.70
5775;DHT22;2913;51.120;6.772;2023-07-20T09:45:06;23.40;88.00
5775;DHT22;2913;51.120;6.772;2023-07-20T09:47:36;23.30;85.50
5775;DHT22;2913;51.120;6.772;2023-07-20T09:50:03;23.40;84.20
5775;DHT22;2913;51.120;6.772;2023-07-20T09:52:30;23.70;84.30
5775;DHT22;2913;51.120;6.772;2023-07-20T09:54:58;23.50;84.50
5775;DHT22;2913;51.120;6.772;2023-07-20T09:57:28;23.50;86.10
5775;DHT22;2913;51.120;6.772;2023-07-20T09:59:56;23.20;87.10
5775;DHT22;2913;51.120;6.772;2023-07-20T10:02:29;23.30;87.60
5775;DHT22;2913;51.120;6.772;2023-07-20T10:05:01;23.50;87.40
5775;DHT22;2913;51.120;6.772;2023-07-20T10:07:28;23.80;87.30
5775;DHT22;2913;51.120;6.772;2023-07-20T10:09:56;24.30;86.50
5775;DHT22;2913;51.120;6.772;2023-07-20T10:12:25;24.60;83.00
5775;DHT22;2913;51.120;6.772;2023-07-20T10:15:05;24.80;81.80
5775;DHT22;2913;51.120;6.772;2023-07-20T10:17:42;23.80;80.00
5775;DHT22;2913;51.120;6.772;2023-07-20T10:20:10;24.00;82.70
5775;DHT22;2913;51.120;6.772;2023-07-20T10:22:36;23.80;81.90
5775;DHT22;2913;51.120;6.772;2023-07-20T10:25:04;23.90;83.00
5775;DHT22;2913;51.120;6.772;2023-07-20T10:27:32;24.20;81.60
5775;DHT22;2913;51.120;6.772;2023-07-20T10:29:58;24.30;80.40
5775;DHT22;2913;51.120;6.772;2023-07-20T10:32:24;24.30;82.00
5775;DHT22;2913;51.120;6.772;2023-07-20T10:34:53;24.10;81.20
5775;DHT22;2913;51.120;6.772;2023-07-20T10:40:34;24.10;80.40
5775;DHT22;2913;51.120;6.772;2023-07-20T10:43:07;24.50;79.90
5775;DHT22;2913;51.120;6.772;2023-07-20T10:48:07;24.50;78.00
5775;DHT22;2913;51.120;6.772;2023-07-20T10:50:40;24.60;78.70
5775;DHT22;2913;51.120;6.772;2023-07-20T10:53:14;25.00;78.90
5775;DHT22;2913;51.120;6.772;2023-07-20T10:55:41;25.20;76.40
5775;DHT22;2913;51.120;6.772;2023-07-20T10:58:09;25.30;75.70
5775;DHT22;2913;51.120;6.772;2023-07-20T11:01:01;25.30;74.90
5775;DHT22;2913;51.120;6.772;2023-07-20T11:03:33;25.10;72.90
5775;DHT22;2913;51.120;6.772;2023-07-20T11:11:39;24.90;73.60
5775;DHT22;2913;51.120;6.772;2023-07-20T11:14:10;24.80;72.50
5775;DHT22;2913;51.120;6.772;2023-07-20T11:16:40;25.00;73.40
5775;DHT22;2913;51.120;6.772;2023-07-20T11:19:27;24.60;75.70
5775;DHT22;2913;51.120;6.772;2023-07-20T11:21:55;24.90;76.90
5775;DHT22;2913;51.120;6.772;2023-07-20T11:24:21;24.90;76.30
5775;DHT22;2913;51.120;6.772;2023-07-20T11:26:53;24.80;74.60
5775;DHT22;2913;51.120;6.772;2023-07-20T11:29:23;24.50;75.30
5775;DHT22;2913;51.120;6.772;2023-07-20T11:31:51;24.50;76.80
5775;DHT22;2913;51.120;6.772;2023-07-20T11:34:19;24.20;76.80
5775;DHT22;2913;51.120;6.772;2023-07-20T11:36:47;24.20;77.10
5775;DHT22;2913;51.120;6.772;2023-07-20T11:39:14;23.80;77.20
5775;DHT22;2913;51.120;6.772;2023-07-20T11:41:50;24.30;77.90
5775;DHT22;2913;51.120;6.772;2023-07-20T11:44:23;24.50;74.50
5775;DHT22;2913;51.120;6.772;2023-07-20T11:47:08;24.70;74.00
5775;DHT22;2913;51.120;6.772;2023-07-20T11:49:43;24.60;73.40
5775;DHT22;2913;51.120;6.772;2023-07-20T11:52:15;24.90;74.50
5775;DHT22;2913;51.120;6.772;2023-07-20T11:54:42;25.00;74.20
5775;DHT22;2913;51.120;6.772;2023-07-20T11:57:18;25.10;73.90
5775;DHT22;2913;51.120;6.772;2023-07-20T11:59:57;25.20;72.70
5775;DHT22;2913;51.120;6.772;2023-07-20T12:02:26;25.40;71.70
5775;DHT22;2913;51.120;6.772;2023-07-20T12:04:55;25.40;72.00
5775;DHT22;2913;51.120;6.772;2023-07-20T12:07:21;25.40;71.90
5775;DHT22;2913;51.120;6.772;2023-07-20T12:10:10;25.60;72.00
5775;DHT22;2913;51.120;6.772;2023-07-20T12:12:40;25.90;71.00
5775;DHT22;2913;51.120;6.772;2023-07-20T12:17:46;25.70;70.20
5775;DHT22;2913;51.120;6.772;2023-07-20T12:20:12;25.50;70.70
5775;DHT22;2913;51.120;6.772;2023-07-20T12:22:43;25.60;71.40
5775;DHT22;2913;51.120;6.772;2023-07-20T12:25:16;25.40;70.50
5775;DHT22;2913;51.120;6.772;2023-07-20T12:27:44;25.20;71.60
5775;DHT22;2913;51.120;6.772;2023-07-20T12:30:10;25.20;71.30
5775;DHT22;2913;51.120;6.772;2023-07-20T12:32:38;25.10;70.00
5775;DHT22;2913;51.120;6.772;2023-07-20T12:35:04;25.10;70.40
5775;DHT22;2913;51.120;6.772;2023-07-20T12:37:32;25.10;71.00
5775;DHT22;2913;51.120;6.772;2023-07-20T12:39:58;25.00;71.50
5775;DHT22;2913;51.120;6.772;2023-07-20T12:42:23;25.10;71.20
5775;DHT22;2913;51.120;6.772;2023-07-20T12:44:49;25.10;71.50
5775;DHT22;2913;51.120;6.772;2023-07-20T12:47:20;25.00;71.70
5775;DHT22;2913;51.120;6.772;2023-07-20T12:49:45;25.20;71.50
5775;DHT22;2913;51.120;6.772;2023-07-20T12:52:12;25.20;71.10
5775;DHT22;2913;51.120;6.772;2023-07-20T12:54:40;25.30;70.90
5775;DHT22;2913;51.120;6.772;2023-07-20T12:57:08;25.30;71.20
5775;DHT22;2913;51.120;6.772;2023-07-20T12:59:36;25.50;72.00
5775;DHT22;2913;51.120;6.772;2023-07-20T13:02:02;25.70;71.50
5775;DHT22;2913;51.120;6.772;2023-07-20T13:04:28;25.80;71.10
5775;DHT22;2913;51.120;6.772;2023-07-20T13:06:53;25.90;71.50
5775;DHT22;2913;51.120;6.772;2023-07-20T13:09:22;25.90;69.80
5775;DHT22;2913;51.120;6.772;2023-07-20T13:11:49;25.90;69.70
5775;DHT22;2913;51.120;6.772;2023-07-20T13:14:14;25.80;69.40
5775;DHT22;2913;51.120;6.772;2023-07-20T13:16:40;25.60;69.20
5775;DHT22;2913;51.120;6.772;2023-07-20T13:19:08;25.70;69.90
5775;DHT22;2913;51.120;6.772;2023-07-20T13:21:36;25.80;69.70
5775;DHT22;2913;51.120;6.772;2023-07-20T13:24:05;25.90;69.10
5775;DHT22;2913;51.120;6.772;2023-07-20T13:26:31;25.80;69.30
5775;DHT22;2913;51.120;6.772;2023-07-20T13:28:56;25.90;69.60
5775;DHT22;2913;51.120;6.772;2023-07-20T13:31:25;25.80;69.10
5775;DHT22;2913;51.120;6.772;2023-07-20T13:33:53;25.70;68.50
5775;DHT22;2913;51.120;6.772;2023-07-20T13:36:20;25.60;69.00
5775;DHT22;2913;51.120;6.772;2023-07-20T13:38:46;25.60;69.30
5775;DHT22;2913;51.120;6.772;2023-07-20T13:41:14;25.70;69.90
5775;DHT22;2913;51.120;6.772;2023-07-20T13:43:40;25.70;69.10
5775;DHT22;2913;51.120;6.772;2023-07-20T13:46:08;25.60;69.30
5775;DHT22;2913;51.120;6.772;2023-07-20T13:48:34;25.70;70.20
5775;DHT22;2913;51.120;6.772;2023-07-20T13:50:59;25.80;68.90
5775;DHT22;2913;51.120;6.772;2023-07-20T13:53:25;25.90;69.20
5775;DHT22;2913;51.120;6.772;2023-07-20T13:55:55;25.30;68.90
5775;DHT22;2913;51.120;6.772;2023-07-20T13:58:22;25.30;69.60
5775;DHT22;2913;51.120;6.772;2023-07-20T14:00:51;25.10;69.70
5775;DHT22;2913;51.120;6.772;2023-07-20T14:03:26;24.80;70.50
5775;DHT22;2913;51.120;6.772;2023-07-20T14:05:54;24.60;71.90
5775;DHT22;2913;51.120;6.772;2023-07-20T14:08:24;24.20;71.20
5775;DHT22;2913;51.120;6.772;2023-07-20T14:10:50;24.10;71.70
5775;DHT22;2913;51.120;6.772;2023-07-20T14:13:16;24.00;71.60
5775;DHT22;2913;51.120;6.772;2023-07-20T14:15:43;24.00;71.80
5775;DHT22;2913;51.120;6.772;2023-07-20T14:18:12;24.10;72.10
5775;DHT22;2913;51.120;6.772;2023-07-20T14:20:40;24.10;71.80
5775;DHT22;2913;51.120;6.772;2023-07-20T14:23:08;24.10;72.00
5775;DHT22;2913;51.120;6.772;2023-07-20T14:25:34;24.10;71.30
5775;DHT22;2913;51.120;6.772;2023-07-20T14:28:00;24.20;72.10
5775;DHT22;2913;51.120;6.772;2023-07-20T14:30:26;23.90;72.10
5775;DHT22;2913;51.120;6.772;2023-07-20T14:32:51;23.80;72.70
5775;DHT22;2913;51.120;6.772;2023-07-20T14:35:17;23.70;73.00
5775;DHT22;2913;51.120;6.772;2023-07-20T14:37:43;23.80;73.30
5775;DHT22;2913;51.120;6.772;2023-07-20T14:40:15;24.00;73.60
5775;DHT22;2913;51.120;6.772;2023-07-20T14:42:43;24.00;72.40
5775;DHT22;2913;51.120;6.772;2023-07-20T14:45:11;24.00;71.90
5775;DHT22;2913;51.120;6.772;2023-07-20T14:47:39;24.00;72.30
5775;DHT22;2913;51.120;6.772;2023-07-20T14:50:06;24.20;72.40
5775;DHT22;2913;51.120;6.772;2023-07-20T14:52:31;24.10;72.10
5775;DHT22;2913;51.120;6.772;2023-07-20T14:55:00;24.10;72.60
5775;DHT22;2913;51.120;6.772;2023-07-20T14:59:54;23.90;71.70
5775;DHT22;2913;51.120;6.772;2023-07-20T15:02:20;23.90;72.70
5775;DHT22;2913;51.120;6.772;2023-07-20T15:04:50;24.00;72.60
5775;DHT22;2913;51.120;6.772;2023-07-20T15:07:20;24.00;72.60
5775;DHT22;2913;51.120;6.772;2023-07-20T15:09:47;24.00;72.30
5775;DHT22;2913;51.120;6.772;2023-07-20T15:12:13;24.10;72.00
5775;DHT22;2913;51.120;6.772;2023-07-20T15:14:44;24.00;71.80
5775;DHT22;2913;51.120;6.772;2023-07-20T15:17:15;24.00;72.30
5775;DHT22;2913;51.120;6.772;2023-07-20T15:19:44;24.20;72.90
5775;DHT22;2913;51.120;6.772;2023-07-20T15:22:09;24.20;72.50
5775;DHT22;2913;51.120;6.772;2023-07-20T15:24:35;24.30;71.90
5775;DHT22;2913;51.120;6.772;2023-07-20T15:27:01;24.50;71.40
5775;DHT22;2913;51.120;6.772;2023-07-20T15:29:28;24.60;69.60
5775;DHT22;2913;51.120;6.772;2023-07-20T15:31:53;24.50;70.80
5775;DHT22;2913;51.120;6.772;2023-07-20T15:34:19;24.70;70.00
5775;DHT22;2913;51.120;6.772;2023-07-20T15:36:45;24.90;70.20
5775;DHT22;2913;51.120;6.772;2023-07-20T15:39:13;25.00;69.50
5775;DHT22;2913;51.120;6.772;2023-07-20T15:41:41;25.10;68.50
5775;DHT22;2913;51.120;6.772;2023-07-20T15:44:09;25.20;69.60
5775;DHT22;2913;51.120;6.772;2023-07-20T15:49:08;25.10;69.80
5775;DHT22;2913;51.120;6.772;2023-07-20T15:51:37;25.20;70.10
5775;DHT22;2913;51.120;6.772;2023-07-20T15:54:07;25.30;68.90
5775;DHT22;2913;51.120;6.772;2023-07-20T15:56:39;25.30;67.00
5775;DHT22;2913;51.120;6.772;2023-07-20T15:59:13;25.30;68.40
5775;DHT22;2913;51.120;6.772;2023-07-20T16:01:39;24.90;68.50
5775;DHT22;2913;51.120;6.772;2023-07-20T16:04:09;24.90;68.20
5775;DHT22;2913;51.120;6.772;2023-07-20T16:06:35;25.00;68.90
5775;DHT22;2913;51.120;6.772;2023-07-20T16:09:05;25.00;68.20
5775;DHT22;2913;51.120;6.772;2023-07-20T16:11:36;25.10;69.10
5775;DHT22;2913;51.120;6.772;2023-07-20T16:14:06;25.20;67.40
5775;DHT22;2913;51.120;6.772;2023-07-20T16:16:35;25.20;67.10
5775;DHT22;2913;51.120;6.772;2023-07-20T16:19:01;25.20;66.10
5775;DHT22;2913;51.120;6.772;2023-07-20T16:21:28;25.10;65.40
5775;DHT22;2913;51.120;6.772;2023-07-20T16:24:00;25.20;66.30
5775;DHT22;2913;51.120;6.772;2023-07-20T16:26:29;25.30;67.60
5775;DHT22;2913;51.120;6.772;2023-07-20T16:28:54;25.30;67.80
5775;DHT22;2913;51.120;6.772;2023-07-20T16:31:24;24.90;66.60
5775;DHT22;2913;51.120;6.772;2023-07-20T16:33:50;24.90;66.40
5775;DHT22;2913;51.120;6.772;2023-07-20T16:36:16;24.90;67.20
5775;DHT22;2913;51.120;6.772;2023-07-20T16:38:45;24.70;66.40